createdAt,value
2019-05-25T00:01:54.287Z,45.48
2019-05-25T00:03:59.820Z,49.23
2019-05-25T00:06:05.414Z,54.80
2019-05-25T00:08:10.961Z,55.70
2019-05-25T00:10:16.661Z,54.38
2019-05-25T00:12:22.269Z,52.65
2019-05-25T00:14:27.800Z,49.77
2019-05-25T00:16:33.917Z,58.75
2019-05-25T00:18:39.468Z,48.50
2019-05-25T00:20:45.106Z,50.67
2019-05-25T00:22:50.661Z,47.38
2019-05-25T00:24:56.176Z,53.30
2019-05-25T00:27:01.797Z,55.65
2019-05-25T00:29:07.424Z,58.48
2019-05-25T00:31:12.968Z,55.50
2019-05-25T00:33:18.589Z,54.60
2019-05-25T00:35:24.255Z,57.62
2019-05-25T00:37:29.774Z,55.25
2019-05-25T00:39:36.202Z,61.90
2019-05-25T00:41:41.768Z,60.48
2019-05-25T00:43:47.320Z,65.08
2019-05-25T00:45:52.861Z,65.05
2019-05-25T00:47:58.493Z,65.32
2019-05-25T00:50:06.547Z,58.08
2019-05-25T00:52:12.085Z,59.20
2019-05-25T00:54:27.495Z,59.00
2019-05-25T00:56:24.865Z,57.93
2019-05-25T00:58:30.407Z,65.35
2019-05-25T01:00:36.129Z,62.58
2019-05-25T01:02:41.677Z,63.45
2019-05-25T01:04:47.200Z,63.45
2019-05-25T01:06:52.740Z,57.33
2019-05-25T01:08:58.264Z,53.70
2019-05-25T01:11:03.827Z,54.10
2019-05-25T01:13:09.364Z,53.85
2019-05-25T01:15:17.040Z,49.27
2019-05-25T01:17:22.590Z,47.33
2019-05-25T01:19:28.137Z,47.35
2019-05-25T01:21:33.701Z,43.02
2019-05-25T01:23:39.372Z,43.45
2019-05-25T01:25:44.937Z,48.17
2019-05-25T01:27:50.503Z,48.45
2019-05-25T01:29:56.052Z,50.00
2019-05-25T01:32:01.588Z,45.20
2019-05-25T01:34:07.107Z,54.40
2019-05-25T01:36:12.632Z,46.48
2019-05-25T01:38:18.217Z,47.33
2019-05-25T01:40:23.919Z,51.37
2019-05-25T01:42:29.503Z,52.17
2019-05-25T01:44:35.079Z,50.48
2019-05-25T01:46:40.627Z,49.20
2019-05-25T01:48:46.169Z,47.23
2019-05-25T01:50:51.728Z,47.88
2019-05-25T01:52:57.267Z,50.17
2019-05-25T01:55:02.905Z,42.75
2019-05-25T01:57:08.474Z,40.38
2019-05-25T01:59:14.084Z,43.15
2019-05-25T02:01:19.638Z,43.55
2019-05-25T02:03:25.197Z,41.88
2019-05-25T02:05:30.741Z,44.73
2019-05-25T02:07:36.725Z,44.50
2019-05-25T02:09:42.354Z,40.80
2019-05-25T02:11:47.929Z,42.90
2019-05-25T02:13:53.457Z,35.88
2019-05-25T02:15:59.033Z,35.08
2019-05-25T02:18:04.724Z,32.03
2019-05-25T02:20:10.802Z,33.05
2019-05-25T02:22:16.344Z,34.23
2019-05-25T02:24:21.895Z,33.60
2019-05-25T02:26:27.448Z,34.18
2019-05-25T02:28:33.023Z,35.08
2019-05-25T02:30:38.563Z,32.98
2019-05-25T02:32:45.254Z,29.57
2019-05-25T02:34:50.897Z,32.70
2019-05-25T02:36:56.411Z,31.15
2019-05-25T02:39:04.966Z,30.72
2019-05-25T02:41:10.609Z,28.05
2019-05-25T02:43:16.084Z,25.82
2019-05-25T02:45:22.833Z,26.02
2019-05-25T02:47:28.414Z,29.92
2019-05-25T02:49:33.975Z,27.30
2019-05-25T02:51:39.589Z,26.85
2019-05-25T02:53:45.152Z,25.10
2019-05-25T02:55:50.692Z,26.82
2019-05-25T02:57:56.237Z,26.27
2019-05-25T03:00:01.856Z,23.15
2019-05-25T03:02:07.473Z,21.62
2019-05-25T03:04:13.051Z,24.25
2019-05-25T03:06:20.660Z,24.32
2019-05-25T03:08:26.201Z,25.32
2019-05-25T03:10:32.688Z,26.37
2019-05-25T03:12:38.771Z,24.32
2019-05-25T03:14:44.321Z,26.70
2019-05-25T03:16:49.917Z,22.40
2019-05-25T03:18:55.530Z,24.70
2019-05-25T03:21:01.057Z,25.02
2019-05-25T03:23:06.673Z,28.90
2019-05-25T03:25:12.727Z,23.05
2019-05-25T03:27:18.260Z,27.52
2019-05-25T03:29:25.425Z,25.15
2019-05-25T03:31:30.977Z,32.63
2019-05-25T03:33:36.518Z,25.43
2019-05-25T03:35:42.084Z,25.25
2019-05-25T03:37:47.617Z,24.02
2019-05-25T03:39:53.150Z,24.27
2019-05-25T03:41:58.684Z,25.15
2019-05-25T03:44:05.442Z,28.00
2019-05-25T03:46:10.991Z,25.55
2019-05-25T03:48:16.721Z,27.65
2019-05-25T03:50:22.408Z,28.05
2019-05-25T03:52:27.967Z,23.40
2019-05-25T03:54:33.494Z,24.37
2019-05-25T03:56:39.111Z,20.23
2019-05-25T03:58:44.629Z,25.50
2019-05-25T04:00:50.177Z,25.37
2019-05-25T04:02:55.737Z,25.72
2019-05-25T04:05:01.314Z,20.52
2019-05-25T04:07:06.872Z,25.12
2019-05-25T04:09:12.493Z,24.05
2019-05-25T04:11:18.025Z,21.45
2019-05-25T04:13:23.549Z,21.55
2019-05-25T04:15:29.176Z,25.20
2019-05-25T04:17:34.789Z,22.55
2019-05-25T04:19:40.329Z,23.55
2019-05-25T04:21:45.885Z,21.07
2019-05-25T04:23:51.441Z,22.32
2019-05-25T04:25:57.025Z,23.73
2019-05-25T04:28:03.716Z,20.23
2019-05-25T04:30:09.790Z,23.30
2019-05-25T04:32:15.332Z,21.95
2019-05-25T04:34:20.918Z,20.37
2019-05-25T04:36:26.461Z,22.82
2019-05-25T04:38:32.084Z,21.07
2019-05-25T04:40:37.697Z,24.40
2019-05-25T04:42:43.302Z,22.07
2019-05-25T04:44:48.923Z,20.75
2019-05-25T04:46:54.463Z,26.23
2019-05-25T04:49:00.008Z,26.57
2019-05-25T04:51:05.550Z,19.52
2019-05-25T04:53:11.123Z,18.35
2019-05-25T04:55:16.718Z,19.20
2019-05-25T04:57:22.293Z,19.07
2019-05-25T04:59:27.819Z,21.70
2019-05-25T05:01:33.344Z,25.05
2019-05-25T05:03:38.887Z,24.65
2019-05-25T05:05:44.492Z,18.42
2019-05-25T05:07:50.026Z,17.42
2019-05-25T05:10:02.783Z,19.77
2019-05-25T05:12:02.753Z,19.98
2019-05-25T05:14:08.309Z,21.48
2019-05-25T05:16:13.852Z,15.78
2019-05-25T05:18:19.394Z,16.62
2019-05-25T05:20:25.068Z,18.50
2019-05-25T05:22:30.600Z,20.10
2019-05-25T05:24:36.162Z,19.90
2019-05-25T05:26:55.295Z,18.17
2019-05-25T05:28:49.933Z,18.85
2019-05-25T05:30:55.561Z,15.30
2019-05-25T05:33:01.233Z,16.73
2019-05-25T05:35:08.018Z,16.25
2019-05-25T05:37:14.348Z,17.92
2019-05-25T05:39:20.322Z,18.77
2019-05-25T05:41:26.684Z,15.13
2019-05-25T05:43:33.147Z,17.57
2019-05-25T05:45:41.600Z,17.35
2019-05-25T05:47:49.277Z,13.13
2019-05-25T05:49:54.858Z,13.20
2019-05-25T05:52:02.466Z,12.95
2019-05-25T05:54:07.994Z,15.53
2019-05-25T05:56:13.524Z,17.02
2019-05-25T05:58:19.047Z,15.43
2019-05-25T06:00:24.724Z,18.00
2019-05-25T06:02:30.266Z,16.05
2019-05-25T06:04:35.799Z,14.73
2019-05-25T06:06:41.324Z,13.85
2019-05-25T06:08:46.936Z,13.25
2019-05-25T06:10:52.498Z,12.28
2019-05-25T06:12:58.030Z,16.05
2019-05-25T06:15:07.707Z,12.20
2019-05-25T06:17:13.234Z,12.93
2019-05-25T06:19:18.779Z,11.95
2019-05-25T06:21:24.308Z,11.60
2019-05-25T06:23:29.850Z,12.40
2019-05-25T06:25:35.433Z,11.12
2019-05-25T06:27:40.968Z,13.78
2019-05-25T06:29:46.524Z,21.80
2019-05-25T06:31:52.135Z,18.00
2019-05-25T06:33:58.733Z,18.23
2019-05-25T06:36:04.404Z,12.47
2019-05-25T06:38:09.929Z,8.33
2019-05-25T06:40:16.918Z,11.48
2019-05-25T06:42:22.458Z,10.43
2019-05-25T06:44:28.030Z,10.13
2019-05-25T06:46:33.586Z,10.82
2019-05-25T06:48:39.129Z,9.28
2019-05-25T06:50:44.673Z,10.48
2019-05-25T06:52:50.203Z,11.75
2019-05-25T06:54:55.777Z,9.93
2019-05-25T06:57:01.287Z,15.13
2019-05-25T06:59:06.891Z,9.65
2019-05-25T07:01:13.594Z,17.60
2019-05-25T07:03:19.196Z,18.90
2019-05-25T07:05:24.876Z,16.25
2019-05-25T07:07:30.434Z,11.20
2019-05-25T07:09:35.959Z,13.20
2019-05-25T07:11:41.492Z,10.28
2019-05-25T07:13:47.037Z,8.50
2019-05-25T07:15:52.582Z,9.83
2019-05-25T07:17:58.111Z,11.28
2019-05-25T07:20:08.152Z,9.85
2019-05-25T07:22:13.808Z,10.60
2019-05-25T07:24:19.323Z,12.70
2019-05-25T07:26:25.126Z,14.00
2019-05-25T07:28:30.723Z,6.42
2019-05-25T07:30:36.393Z,9.58
2019-05-25T07:32:42.269Z,8.63
2019-05-25T07:34:47.800Z,7.97
2019-05-25T07:36:53.391Z,6.97
2019-05-25T07:38:58.935Z,10.78
2019-05-25T07:41:04.626Z,9.25
2019-05-25T07:43:10.176Z,9.33
2019-05-25T07:45:15.982Z,8.48
2019-05-25T07:47:21.569Z,10.80
2019-05-25T07:49:27.157Z,7.35
2019-05-25T07:51:32.708Z,6.85
2019-05-25T07:53:38.237Z,8.58
2019-05-25T07:55:43.772Z,8.68
2019-05-25T07:57:49.311Z,8.30
2019-05-25T07:59:54.861Z,4.70
2019-05-25T08:02:00.426Z,5.53
2019-05-25T08:04:06.003Z,7.28
2019-05-25T08:06:11.522Z,5.65
2019-05-25T08:08:17.118Z,6.30
2019-05-25T08:10:22.641Z,6.95
2019-05-25T08:12:28.153Z,5.30
2019-05-25T08:14:33.687Z,8.35
2019-05-25T08:16:39.224Z,5.80
2019-05-25T08:18:44.788Z,5.05
2019-05-25T08:20:50.316Z,7.35
2019-05-25T08:22:55.853Z,9.35
2019-05-25T08:25:01.458Z,6.08
2019-05-25T08:27:07.046Z,7.55
2019-05-25T08:29:12.573Z,8.85
2019-05-25T08:31:18.127Z,6.67
2019-05-25T08:33:23.697Z,5.42
2019-05-25T08:35:29.234Z,9.35
2019-05-25T08:37:34.862Z,5.80
2019-05-25T08:39:40.370Z,4.95
2019-05-25T08:41:45.892Z,5.75
2019-05-25T08:43:52.510Z,5.05
2019-05-25T08:45:58.029Z,4.47
2019-05-25T08:48:03.697Z,4.85
2019-05-25T08:50:09.481Z,4.40
2019-05-25T08:52:15.001Z,7.62
2019-05-25T08:54:20.635Z,7.72
2019-05-25T08:56:26.172Z,5.22
2019-05-25T08:58:47.283Z,5.58
2019-05-25T09:00:38.847Z,4.45
2019-05-25T09:02:44.386Z,7.22
2019-05-25T09:04:49.966Z,7.80
2019-05-25T09:06:55.449Z,4.45
2019-05-25T09:09:00.982Z,5.20
2019-05-25T09:11:07.140Z,3.22
2019-05-25T09:13:12.737Z,6.22
2019-05-25T09:15:19.442Z,6.67
2019-05-25T09:17:24.980Z,7.55
2019-05-25T09:19:30.493Z,8.63
2019-05-25T09:21:36.023Z,5.80
2019-05-25T09:23:41.618Z,9.93
2019-05-25T09:25:47.149Z,4.70
2019-05-25T09:27:52.675Z,4.90
2019-05-25T09:29:58.184Z,4.72
2019-05-25T09:32:06.843Z,8.00
2019-05-25T09:34:10.895Z,8.58
2019-05-25T09:36:16.414Z,5.45
2019-05-25T09:38:22.005Z,5.33
2019-05-25T09:40:27.615Z,4.35
2019-05-25T09:42:33.152Z,4.22
2019-05-25T09:44:38.776Z,6.00
2019-05-25T09:46:44.294Z,6.05
2019-05-25T09:48:49.825Z,3.55
2019-05-25T09:50:55.356Z,6.25
2019-05-25T09:53:00.910Z,5.12
2019-05-25T09:55:08.138Z,4.33
2019-05-25T09:57:13.694Z,4.90
2019-05-25T09:59:20.569Z,4.92
2019-05-25T10:01:26.270Z,7.12
2019-05-25T10:03:31.881Z,5.30
2019-05-25T10:05:37.495Z,3.67
2019-05-25T10:07:43.088Z,6.67
2019-05-25T10:09:48.624Z,5.45
2019-05-25T10:11:54.182Z,7.78
2019-05-25T10:13:59.705Z,11.30
2019-05-25T10:16:05.298Z,6.65
2019-05-25T10:18:17.722Z,12.40
2019-05-25T10:20:24.382Z,4.47
2019-05-25T10:22:29.916Z,6.72
2019-05-25T10:24:35.524Z,3.70
2019-05-25T10:26:41.036Z,3.27
2019-05-25T10:28:46.559Z,6.75
2019-05-25T10:30:52.115Z,3.67
2019-05-25T10:32:57.628Z,5.20
2019-05-25T10:35:04.322Z,3.65
2019-05-25T10:37:09.856Z,6.20
2019-05-25T10:39:15.390Z,3.85
2019-05-25T10:41:20.963Z,3.70
2019-05-25T10:43:26.568Z,3.17
2019-05-25T10:45:32.177Z,4.30
2019-05-25T10:47:37.754Z,5.60
2019-05-25T10:49:43.307Z,4.42
2019-05-25T10:51:48.828Z,3.40
2019-05-25T10:53:54.349Z,4.33
2019-05-25T10:55:59.889Z,3.72
2019-05-25T10:58:05.468Z,6.08
2019-05-25T11:00:12.651Z,14.78
2019-05-25T11:02:18.175Z,5.55
2019-05-25T11:04:23.702Z,3.65
2019-05-25T11:06:29.197Z,4.35
2019-05-25T11:08:34.806Z,4.80
2019-05-25T11:10:40.405Z,4.05
2019-05-25T11:12:45.986Z,2.95
2019-05-25T11:14:52.582Z,4.10
2019-05-25T11:16:58.180Z,4.95
2019-05-25T11:19:03.810Z,4.83
2019-05-25T11:21:09.317Z,89.42
2019-05-25T11:23:14.840Z,196.22
2019-05-25T11:25:20.478Z,23.07
2019-05-25T11:27:26.021Z,36.15
2019-05-25T11:29:31.562Z,8.73
2019-05-25T11:31:37.193Z,4.87
2019-05-25T11:33:42.716Z,10.45
2019-05-25T11:35:48.257Z,4.47
2019-05-25T11:37:53.866Z,14.85
2019-05-25T11:39:59.465Z,15.88
2019-05-25T11:42:05.071Z,5.12
2019-05-25T11:44:10.604Z,11.55
2019-05-25T11:46:16.156Z,30.92
2019-05-25T11:48:21.688Z,4.10
2019-05-25T11:50:27.235Z,14.25
2019-05-25T11:52:32.834Z,3.85
2019-05-25T11:54:38.372Z,6.70
2019-05-25T11:56:43.916Z,3.95
2019-05-25T11:58:49.524Z,5.42
2019-05-25T12:00:55.215Z,6.17
2019-05-25T12:03:00.844Z,5.30
2019-05-25T12:05:08.204Z,6.47
2019-05-25T12:07:13.736Z,5.33
2019-05-25T12:09:19.283Z,4.42
2019-05-25T12:11:24.896Z,7.47
2019-05-25T12:13:32.142Z,6.10
2019-05-25T12:15:37.632Z,6.10
2019-05-25T12:17:43.179Z,5.90
2019-05-25T12:19:48.672Z,4.80
2019-05-25T12:21:54.789Z,4.60
2019-05-25T12:24:00.390Z,4.60
2019-05-25T12:26:06.000Z,4.58
2019-05-25T12:28:11.553Z,5.65
2019-05-25T12:30:17.944Z,5.58
2019-05-25T12:32:23.525Z,9.73
2019-05-25T12:34:29.076Z,8.00
2019-05-25T12:36:34.614Z,11.03
2019-05-25T12:38:40.427Z,6.22
2019-05-25T12:40:53.620Z,9.13
2019-05-25T12:42:53.219Z,4.12
2019-05-25T12:44:58.897Z,5.62
2019-05-25T12:47:04.724Z,5.42
2019-05-25T12:49:11.433Z,4.53
2019-05-25T12:51:17.831Z,4.40
2019-05-25T12:53:24.682Z,9.03
2019-05-25T12:55:30.211Z,6.05
2019-05-25T12:57:35.887Z,6.25
2019-05-25T12:59:41.502Z,5.10
2019-05-25T13:01:47.031Z,4.67
2019-05-25T13:03:52.632Z,4.30
2019-05-25T13:05:58.284Z,5.05
2019-05-25T13:08:03.962Z,8.13
2019-05-25T13:10:10.059Z,6.90
2019-05-25T13:12:15.605Z,6.47
2019-05-25T13:14:21.221Z,5.47
2019-05-25T13:16:26.753Z,5.87
2019-05-25T13:18:32.293Z,5.33
2019-05-25T13:20:37.852Z,8.30
2019-05-25T13:22:44.442Z,6.28
2019-05-25T13:24:50.183Z,7.33
2019-05-25T13:26:55.845Z,7.85
2019-05-25T13:29:01.541Z,5.42
2019-05-25T13:31:11.578Z,7.67
2019-05-25T13:33:14.317Z,6.72
2019-05-25T13:35:19.987Z,4.03
2019-05-25T13:37:25.580Z,4.70
2019-05-25T13:39:31.137Z,9.33
2019-05-25T13:41:36.738Z,9.73
2019-05-25T13:43:42.387Z,9.00
2019-05-25T13:45:47.909Z,6.75
2019-05-25T13:47:53.411Z,11.57
2019-05-25T13:49:58.962Z,9.33
2019-05-25T13:52:04.615Z,17.02
2019-05-25T13:54:10.143Z,5.92
2019-05-25T13:56:15.681Z,7.72
2019-05-25T13:58:21.190Z,8.03
2019-05-25T14:00:26.718Z,7.45
2019-05-25T14:02:32.246Z,5.03
2019-05-25T14:04:38.827Z,7.90
2019-05-25T14:06:44.350Z,8.50
2019-05-25T14:08:49.913Z,5.17
2019-05-25T14:10:55.416Z,5.97
2019-05-25T14:13:00.964Z,4.53
2019-05-25T14:15:08.594Z,4.30
2019-05-25T14:17:14.425Z,6.37
2019-05-25T14:19:19.964Z,4.30
2019-05-25T14:21:25.529Z,6.90
2019-05-25T14:23:31.052Z,9.43
2019-05-25T14:25:36.633Z,6.28
2019-05-25T14:27:42.226Z,6.17
2019-05-25T14:29:47.750Z,5.47
2019-05-25T14:31:53.340Z,8.58
2019-05-25T14:33:58.941Z,7.42
2019-05-25T14:36:04.563Z,8.35
2019-05-25T14:38:10.148Z,6.40
2019-05-25T14:40:15.916Z,6.37
2019-05-25T14:42:21.439Z,7.83
2019-05-25T14:44:27.037Z,6.33
2019-05-25T14:46:32.625Z,7.22
2019-05-25T14:48:38.138Z,7.75
2019-05-25T14:50:43.668Z,5.47
2019-05-25T14:52:49.192Z,5.80
2019-05-25T14:54:54.705Z,4.78
2019-05-25T14:57:00.212Z,6.15
2019-05-25T14:59:05.896Z,7.72
2019-05-25T15:01:11.421Z,6.17
2019-05-25T15:03:16.973Z,5.45
2019-05-25T15:05:22.580Z,5.80
2019-05-25T15:07:28.200Z,5.70
2019-05-25T15:09:33.699Z,8.48
2019-05-25T15:11:39.319Z,8.23
2019-05-25T15:13:44.831Z,8.73
2019-05-25T15:15:50.417Z,6.78
2019-05-25T15:17:55.938Z,5.83
2019-05-25T15:20:01.656Z,9.90
2019-05-25T15:22:07.392Z,9.50
2019-05-25T15:24:13.194Z,9.70
2019-05-25T15:26:19.748Z,5.80
2019-05-25T15:28:25.286Z,8.13
2019-05-25T15:30:30.951Z,6.25
2019-05-25T15:32:36.509Z,7.03
2019-05-25T15:34:42.084Z,6.45
2019-05-25T15:36:48.673Z,7.50
2019-05-25T15:38:54.368Z,6.95
2019-05-25T15:41:00.066Z,10.00
2019-05-25T15:43:05.651Z,10.50
2019-05-25T15:45:11.835Z,9.63
2019-05-25T15:47:17.534Z,10.75
2019-05-25T15:49:32.870Z,10.60
2019-05-25T15:51:30.426Z,12.33
2019-05-25T15:53:35.914Z,14.50
2019-05-25T15:55:41.512Z,14.53
2019-05-25T15:57:47.101Z,11.85
2019-05-25T15:59:52.657Z,14.60
2019-05-25T16:01:58.273Z,18.52
2019-05-25T16:04:04.010Z,15.75
2019-05-25T16:06:09.639Z,14.05
2019-05-25T16:08:15.524Z,14.98
2019-05-25T16:10:21.121Z,14.70
2019-05-25T16:12:26.749Z,14.85
2019-05-25T16:14:32.303Z,14.60
2019-05-25T16:16:37.844Z,11.25
2019-05-25T16:18:43.391Z,11.50
2019-05-25T16:20:49.978Z,13.53
2019-05-25T16:22:55.620Z,12.98
2019-05-25T16:25:01.155Z,12.05
2019-05-25T16:27:06.754Z,11.57
2019-05-25T16:29:12.365Z,11.15
2019-05-25T16:31:17.967Z,10.65
2019-05-25T16:33:23.505Z,10.72
2019-05-25T16:35:29.116Z,11.53
2019-05-25T16:37:34.896Z,11.63
2019-05-25T16:39:40.545Z,12.85
2019-05-25T16:41:46.496Z,11.60
2019-05-25T16:43:52.090Z,11.40
2019-05-25T16:45:57.602Z,15.35
2019-05-25T16:48:03.240Z,12.78
2019-05-25T16:50:13.872Z,14.95
2019-05-25T16:52:17.281Z,12.13
2019-05-25T16:54:22.846Z,14.70
2019-05-25T16:56:28.392Z,19.12
2019-05-25T16:58:34.077Z,12.15
2019-05-25T17:00:39.629Z,11.08
2019-05-25T17:02:45.194Z,10.85
2019-05-25T17:04:50.697Z,11.45
2019-05-25T17:06:56.360Z,14.55
2019-05-25T17:09:02.065Z,13.90
2019-05-25T17:11:07.928Z,12.43
2019-05-25T17:13:13.465Z,12.90
2019-05-25T17:15:19.140Z,19.82
2019-05-25T17:17:24.666Z,12.25
2019-05-25T17:19:30.210Z,13.20
2019-05-25T17:21:36.796Z,14.15
2019-05-25T17:23:42.326Z,14.85
2019-05-25T17:25:47.847Z,18.73
2019-05-25T17:27:53.504Z,15.63
2019-05-25T17:29:59.078Z,16.48
2019-05-25T17:32:05.159Z,15.88
2019-05-25T17:34:10.757Z,13.40
2019-05-25T17:36:16.401Z,15.53
2019-05-25T17:38:21.995Z,17.82
2019-05-25T17:40:27.707Z,16.23
2019-05-25T17:42:33.356Z,16.27
2019-05-25T17:44:38.893Z,18.32
2019-05-25T17:46:44.630Z,18.82
2019-05-25T17:48:50.194Z,18.85
2019-05-25T17:50:55.742Z,21.42
2019-05-25T17:53:01.271Z,24.63
2019-05-25T17:55:08.183Z,22.67
2019-05-25T17:57:13.736Z,19.62
2019-05-25T17:59:19.313Z,24.12
2019-05-25T18:01:26.009Z,23.27
2019-05-25T18:03:31.642Z,27.40
2019-05-25T18:05:37.207Z,22.77
2019-05-25T18:07:42.989Z,26.70
2019-05-25T18:09:48.540Z,24.87
2019-05-25T18:11:54.111Z,25.32
2019-05-25T18:13:59.752Z,27.27
2019-05-25T18:16:05.444Z,22.67
2019-05-25T18:18:11.123Z,28.17
2019-05-25T18:20:17.065Z,25.92
2019-05-25T18:22:22.692Z,29.35
2019-05-25T18:24:28.335Z,32.03
2019-05-25T18:26:34.977Z,27.65
2019-05-25T18:28:40.657Z,28.98
2019-05-25T18:30:46.359Z,32.90
2019-05-25T18:32:52.016Z,29.07
2019-05-25T18:34:57.571Z,27.00
2019-05-25T18:37:03.188Z,28.95
2019-05-25T18:39:08.846Z,30.23
2019-05-25T18:41:14.402Z,36.90
2019-05-25T18:43:20.092Z,33.53
2019-05-25T18:45:25.735Z,39.42
2019-05-25T18:47:31.307Z,34.55
2019-05-25T18:49:36.890Z,42.62
2019-05-25T18:51:42.483Z,34.80
2019-05-25T18:53:48.096Z,36.23
2019-05-25T18:55:53.720Z,33.55
2019-05-25T18:57:59.294Z,36.65
2019-05-25T19:00:07.470Z,32.70
2019-05-25T19:02:14.196Z,31.17
2019-05-25T19:04:19.776Z,35.33
2019-05-25T19:06:25.413Z,36.48
2019-05-25T19:08:31.055Z,30.72
2019-05-25T19:10:36.688Z,29.23
2019-05-25T19:12:42.411Z,30.62
2019-05-25T19:14:47.964Z,33.35
2019-05-25T19:16:53.588Z,29.75
2019-05-25T19:18:59.145Z,29.90
2019-05-25T19:21:04.751Z,34.78
2019-05-25T19:23:10.352Z,30.60
2019-05-25T19:25:17.672Z,32.80
2019-05-25T19:27:36.391Z,38.00
2019-05-25T19:29:47.484Z,35.35
2019-05-25T19:31:56.561Z,43.30
2019-05-25T19:34:08.046Z,46.88
2019-05-25T19:39:14.886Z,39.60
2019-05-25T19:41:26.910Z,45.03
2019-05-25T19:43:35.527Z,49.05
2019-05-25T19:45:47.029Z,54.15
2019-05-25T19:47:55.089Z,50.30
2019-05-25T19:50:10.330Z,52.90
2019-05-25T19:52:16.738Z,49.90
2019-05-25T19:54:27.400Z,49.88
2019-05-25T19:56:37.281Z,52.55
2019-05-25T19:58:56.612Z,49.33
2019-05-25T20:01:04.429Z,49.48
2019-05-25T20:03:23.066Z,56.28
2019-05-25T20:05:40.449Z,55.48
2019-05-25T20:07:46.081Z,57.03
2019-05-25T20:09:51.645Z,57.48
2019-05-25T20:11:57.212Z,58.68
2019-05-25T20:14:04.477Z,58.92
2019-05-25T20:16:11.664Z,64.22
2019-05-25T20:18:17.261Z,57.03
2019-05-25T20:20:22.926Z,60.20
2019-05-25T20:22:28.501Z,62.38
2019-05-25T20:24:34.040Z,65.22
2019-05-25T20:26:39.591Z,69.80
2019-05-25T20:28:45.127Z,66.57
2019-05-25T20:30:50.654Z,68.52
2019-05-25T20:32:56.302Z,72.85
2019-05-25T20:35:01.840Z,77.40
2019-05-25T20:37:07.542Z,79.30
2019-05-25T20:39:13.284Z,81.82
2019-05-25T20:41:18.808Z,81.87
2019-05-25T20:43:24.332Z,82.10
2019-05-25T20:45:42.435Z,81.65
2019-05-25T20:51:00.752Z,86.28
2019-05-25T20:53:11.380Z,97.02
2019-05-25T20:55:17.065Z,99.42
2019-05-25T20:57:22.748Z,114.70
2019-05-25T20:59:28.479Z,126.42
2019-05-25T21:01:34.036Z,130.72
2019-05-25T21:03:39.627Z,111.92
2019-05-25T21:05:50.125Z,113.62
2019-05-25T21:07:52.412Z,111.72
2019-05-25T21:09:57.973Z,110.08
2019-05-25T21:12:03.628Z,101.62
2019-05-25T21:14:09.170Z,110.17
2019-05-25T21:16:14.697Z,109.85
2019-05-25T21:18:20.331Z,114.47
2019-05-25T21:20:25.866Z,119.47
2019-05-25T21:22:31.464Z,116.85
2019-05-25T21:24:37.089Z,130.47
2019-05-25T21:26:42.765Z,131.63
2019-05-25T21:28:48.302Z,139.45
2019-05-25T21:30:53.853Z,136.60
2019-05-25T21:32:59.376Z,140.43
2019-05-25T21:35:10.885Z,131.40
2019-05-25T21:37:16.444Z,133.78
2019-05-25T21:39:22.044Z,133.35
2019-05-25T21:41:29.307Z,124.02
2019-05-25T21:43:34.960Z,132.52
2019-05-25T21:45:40.497Z,130.60
2019-05-25T21:47:46.020Z,127.55
2019-05-25T21:49:52.660Z,123.47
2019-05-25T21:51:58.212Z,138.35
2019-05-25T21:54:03.738Z,129.07
2019-05-25T21:56:09.280Z,132.25
2019-05-25T21:58:14.815Z,132.75
2019-05-25T22:00:22.443Z,132.37
2019-05-25T22:02:29.616Z,130.30
2019-05-25T22:04:36.295Z,143.15
2019-05-25T22:06:41.929Z,132.30
2019-05-25T22:08:47.479Z,138.18
2019-05-25T22:10:53.017Z,137.30
2019-05-25T22:12:58.551Z,139.90
2019-05-25T22:15:09.736Z,137.70
2019-05-25T22:17:15.336Z,134.90
2019-05-25T22:19:20.880Z,141.97
2019-05-25T22:21:26.560Z,132.95
2019-05-25T22:23:32.092Z,130.87
2019-05-25T22:25:37.692Z,133.10
2019-05-25T22:27:43.231Z,130.93
2019-05-25T22:29:48.783Z,122.72
2019-05-25T22:31:54.389Z,122.55
2019-05-25T22:33:59.919Z,120.67
2019-05-25T22:36:05.718Z,103.50
2019-05-25T22:38:11.267Z,108.27
2019-05-25T22:40:17.948Z,103.32
2019-05-25T22:42:23.538Z,101.33
2019-05-25T22:44:29.239Z,106.25
2019-05-25T22:46:34.897Z,102.40
2019-05-25T22:48:40.542Z,102.30
2019-05-25T22:50:46.086Z,103.35
2019-05-25T22:52:51.621Z,96.47
2019-05-25T22:54:57.192Z,94.17
2019-05-25T22:57:02.979Z,91.97
2019-05-25T22:59:08.560Z,99.77
2019-05-25T23:01:14.100Z,94.50
2019-05-25T23:03:19.721Z,93.52
2019-05-25T23:05:25.256Z,95.05
2019-05-25T23:07:30.784Z,91.53
2019-05-25T23:09:36.316Z,91.78
2019-05-25T23:11:41.927Z,89.92
2019-05-25T23:13:47.480Z,83.75
2019-05-25T23:15:53.033Z,85.22
2019-05-25T23:17:58.579Z,83.25
2019-05-25T23:20:06.354Z,87.85
2019-05-25T23:22:11.885Z,80.47
2019-05-25T23:24:17.515Z,84.03
2019-05-25T23:26:23.131Z,81.30
2019-05-25T23:28:28.595Z,84.77
2019-05-25T23:30:34.196Z,81.22
2019-05-25T23:32:39.841Z,78.75
2019-05-25T23:34:45.361Z,76.35
2019-05-25T23:36:50.909Z,79.03
2019-05-25T23:38:56.541Z,76.97
2019-05-25T23:41:03.056Z,79.97
2019-05-25T23:43:08.592Z,79.17
2019-05-25T23:45:15.668Z,82.00
2019-05-25T23:47:21.201Z,84.72
2019-05-25T23:49:26.728Z,95.90
2019-05-25T23:51:32.350Z,93.52
2019-05-25T23:53:37.889Z,91.47
2019-05-25T23:55:43.420Z,93.85
2019-05-25T23:57:48.960Z,93.25
2019-05-25T23:59:54.489Z,96.72
